Time;durP1;ratioP1;P1;durP2;ratioP2;P2;SDS_P1;SDS_P2;PMS_P1;PMS_P2;Temp;Humidity;BMP_temperature;BMP_pressure;BME280_temperature;BME280_humidity;BME280_pressure;Samples;Min_cycle;Max_cycle;Signal;HPM_P1;HPM_P2
2024/03/06 00:02:08;;;;;;;2.55;1.50;;;21.50;54.70;;;;;;5080954;28;20024;-62
2024/03/06 00:04:34;;;;;;;3.47;1.67;;;21.40;54.70;;;;;;5081475;28;20067;-62
2024/03/06 00:07:00;;;;;;;2.60;1.58;;;21.40;54.70;;;;;;5079266;28;20074;-62
2024/03/06 00:09:27;;;;;;;2.75;1.50;;;21.40;54.70;;;;;;5077380;28;20505;-62
2024/03/06 00:11:56;;;;;;;2.95;1.90;;;21.40;54.70;;;;;;5079038;28;20094;-62
2024/03/06 00:14:22;;;;;;;2.95;1.70;;;21.40;54.70;;;;;;5080100;28;20051;-60
2024/03/06 00:16:50;;;;;;;3.05;1.88;;;21.40;54.70;;;;;;5078256;28;20646;-60
2024/03/06 00:19:16;;;;;;;2.83;1.67;;;21.40;54.70;;;;;;5081057;28;20401;-59
2024/03/06 00:21:41;;;;;;;3.65;2.10;;;21.40;54.60;;;;;;5081672;28;20143;-59
2024/03/06 00:24:07;;;;;;;2.58;1.63;;;21.40;54.70;;;;;;5078556;28;20037;-62
2024/03/06 00:26:33;;;;;;;2.53;1.58;;;21.40;54.70;;;;;;5077574;28;20472;-60
2024/03/06 00:28:59;;;;;;;2.78;1.60;;;21.40;54.70;;;;;;5080001;28;21188;-60
2024/03/06 00:31:25;;;;;;;3.38;1.52;;;21.40;54.70;;;;;;5078992;28;20021;-60
2024/03/06 00:33:50;;;;;;;1.83;1.25;;;21.30;54.60;;;;;;5079357;28;20024;-62
2024/03/06 00:36:16;;;;;;;2.88;1.58;;;21.30;54.60;;;;;;5081437;28;20028;-62
2024/03/06 00:38:43;;;;;;;2.30;1.55;;;21.30;54.60;;;;;;5079195;28;20524;-62
2024/03/06 00:41:08;;;;;;;2.22;1.50;;;21.30;54.60;;;;;;5076830;28;20574;-62
2024/03/06 00:43:34;;;;;;;2.67;1.60;;;21.30;54.60;;;;;;5079722;28;20024;-62
2024/03/06 00:46:00;;;;;;;2.35;1.50;;;21.30;54.60;;;;;;5078917;28;20066;-62
2024/03/06 00:48:25;;;;;;;2.53;1.40;;;21.30;54.60;;;;;;5078915;28;20024;-62
2024/03/06 00:50:51;;;;;;;2.30;1.50;;;21.30;54.60;;;;;;5078305;28;20035;-62
2024/03/06 00:53:17;;;;;;;2.90;1.60;;;21.30;54.60;;;;;;5079648;28;20028;-62
2024/03/06 00:55:42;;;;;;;2.40;1.55;;;21.30;54.60;;;;;;5078046;28;20718;-62
2024/03/06 00:58:08;;;;;;;2.63;1.40;;;21.30;54.60;;;;;;5078317;28;20081;-62
2024/03/06 01:00:33;;;;;;;2.35;1.40;;;21.30;54.50;;;;;;5079011;28;20024;-62
2024/03/06 01:02:59;;;;;;;2.28;1.48;;;21.30;54.60;;;;;;5079259;28;20047;-62
2024/03/06 01:05:25;;;;;;;2.92;1.42;;;21.20;54.50;;;;;;5077638;28;20028;-62
2024/03/06 01:07:50;;;;;;;2.50;1.52;;;21.20;54.50;;;;;;5078458;28;20036;-62
2024/03/06 01:10:16;;;;;;;3.10;1.30;;;21.20;54.50;;;;;;5077415;28;20975;-62
2024/03/06 01:12:45;;;;;;;2.05;1.42;;;21.20;54.50;;;;;;5078153;28;20031;-62
2024/03/06 01:15:11;;;;;;;2.58;1.30;;;21.20;54.50;;;;;;5077717;28;20083;-62
2024/03/06 01:17:37;;;;;;;2.25;1.52;;;21.20;54.50;;;;;;5077378;28;20067;-62
2024/03/06 01:20:06;;;;;;;2.53;1.58;;;21.20;54.50;;;;;;5075600;28;20602;-62
2024/03/06 01:22:33;;;;;;;2.38;1.60;;;21.20;54.50;;;;;;5080578;28;20031;-62
2024/03/06 01:24:59;;;;;;;2.00;1.33;;;21.20;54.50;;;;;;5074641;28;20171;-62
2024/03/06 01:27:25;;;;;;;2.28;1.30;;;21.10;54.50;;;;;;5080087;28;20031;-62
2024/03/06 01:29:50;;;;;;;2.63;1.70;;;21.20;54.60;;;;;;5079894;28;20024;-62
2024/03/06 01:32:16;;;;;;;2.28;1.40;;;21.10;54.50;;;;;;5059923;28;20472;-62
2024/03/06 01:34:42;;;;;;;3.42;1.42;;;21.10;54.50;;;;;;5078627;28;20047;-62
2024/03/06 01:37:08;;;;;;;2.25;1.50;;;21.10;54.50;;;;;;5078742;28;20025;-62
2024/03/06 01:39:35;;;;;;;2.58;1.52;;;21.10;54.50;;;;;;5075566;28;20078;-62
2024/03/06 01:42:01;;;;;;;2.20;1.40;;;21.10;54.50;;;;;;5077659;28;20131;-62
2024/03/06 01:44:27;;;;;;;2.40;1.38;;;21.10;54.50;;;;;;5078572;28;20484;-61
2024/03/06 01:46:54;;;;;;;2.78;1.30;;;21.10;54.50;;;;;;5078838;28;20073;-60
2024/03/06 01:49:22;;;;;;;2.17;1.30;;;21.10;54.50;;;;;;5080502;28;20037;-59
2024/03/06 01:51:53;;;;;;;1.75;1.20;;;21.00;54.50;;;;;;5079598;28;20026;-59
2024/03/06 01:54:19;;;;;;;2.28;1.35;;;21.00;54.50;;;;;;5076517;28;20503;-59
2024/03/06 01:56:47;;;;;;;1.90;1.20;;;21.00;54.60;;;;;;5074026;28;20108;-60
2024/03/06 01:59:15;;;;;;;2.17;1.30;;;21.00;54.60;;;;;;5078729;28;20035;-60
2024/03/06 02:01:40;;;;;;;1.80;1.20;;;21.00;54.50;;;;;;5081247;28;20730;-61
2024/03/06 02:04:11;;;;;;;2.00;1.42;;;21.00;54.60;;;;;;5082693;28;20037;-60
2024/03/06 02:06:38;;;;;;;1.77;1.27;;;21.00;54.60;;;;;;5082787;28;20032;-59
2024/03/06 02:09:04;;;;;;;1.70;1.20;;;21.00;54.60;;;;;;5081838;28;20027;-61
2024/03/06 02:11:30;;;;;;;2.80;1.50;;;21.00;54.60;;;;;;5081397;28;20031;-60
2024/03/06 02:13:56;;;;;;;2.10;1.30;;;20.90;54.60;;;;;;5083665;28;20028;-60
2024/03/06 02:16:21;;;;;;;1.88;1.23;;;20.90;54.60;;;;;;5080650;28;20028;-59
2024/03/06 02:18:54;;;;;;;2.22;1.40;;;20.90;54.50;;;;;;5081524;28;20407;-60
2024/03/06 02:21:21;;;;;;;2.03;1.13;;;20.90;54.50;;;;;;5080954;28;20094;-61
2024/03/06 02:23:48;;;;;;;2.20;1.30;;;20.90;54.60;;;;;;5082033;28;20029;-61
2024/03/06 02:26:14;;;;;;;2.10;1.20;;;20.90;54.60;;;;;;5079558;28;20111;-60
2024/03/06 02:28:46;;;;;;;3.10;1.30;;;20.90;54.60;;;;;;5080495;28;20552;-60
2024/03/06 02:31:11;;;;;;;2.20;1.38;;;20.90;54.60;;;;;;5081487;28;20066;-59
2024/03/06 02:33:37;;;;;;;1.83;1.20;;;20.90;54.60;;;;;;5080692;28;20028;-61
2024/03/06 02:36:02;;;;;;;1.90;1.05;;;20.90;54.60;;;;;;5081593;28;20024;-61
2024/03/06 02:38:28;;;;;;;1.65;1.10;;;20.90;54.60;;;;;;5082199;28;20118;-62
2024/03/06 02:40:54;;;;;;;1.63;1.10;;;20.80;54.60;;;;;;5078824;28;20028;-61
2024/03/06 02:43:19;;;;;;;1.70;1.10;;;20.90;54.60;;;;;;5082449;28;20489;-61
2024/03/06 02:45:45;;;;;;;2.22;1.27;;;20.80;54.60;;;;;;5079820;28;20029;-61
2024/03/06 02:48:11;;;;;;;1.90;1.30;;;20.80;54.60;;;;;;5084266;28;20140;-61
2024/03/06 02:50:36;;;;;;;2.58;1.40;;;20.80;54.60;;;;;;5081839;28;20028;-62
2024/03/06 02:53:02;;;;;;;1.40;1.10;;;20.80;54.60;;;;;;5083234;28;20046;-62
2024/03/06 02:55:28;;;;;;;1.63;1.15;;;20.80;54.60;;;;;;5080490;28;20034;-62
2024/03/06 02:57:53;;;;;;;1.60;1.17;;;20.80;54.60;;;;;;5081181;28;20020;-62
2024/03/06 03:00:19;;;;;;;2.22;1.35;;;20.80;54.60;;;;;;5082837;28;20043;-62
2024/03/06 03:02:45;;;;;;;1.73;1.30;;;20.80;54.60;;;;;;5078035;28;20138;-62
2024/03/06 03:05:10;;;;;;;1.40;0.90;;;20.80;54.60;;;;;;5081416;28;20025;-62
2024/03/06 03:07:36;;;;;;;1.42;1.02;;;20.80;54.60;;;;;;5083162;28;20107;-62
2024/03/06 03:10:01;;;;;;;2.40;1.23;;;20.80;54.60;;;;;;5079482;28;20032;-62
2024/03/06 03:12:27;;;;;;;2.88;1.10;;;20.70;54.50;;;;;;5079316;28;20191;-62
2024/03/06 03:14:53;;;;;;;1.83;1.20;;;20.80;54.60;;;;;;5080345;28;20032;-62
2024/03/06 03:17:22;;;;;;;2.33;1.30;;;20.80;54.60;;;;;;5080273;28;20476;-62
2024/03/06 03:19:47;;;;;;;1.67;1.13;;;20.80;54.60;;;;;;5081941;28;20043;-62
2024/03/06 03:22:13;;;;;;;1.95;1.27;;;20.70;54.50;;;;;;5080329;28;20042;-62
2024/03/06 03:24:41;;;;;;;2.15;1.23;;;20.70;54.50;;;;;;5078975;28;20445;-62
2024/03/06 03:27:07;;;;;;;1.63;1.20;;;20.80;54.60;;;;;;5079734;28;20027;-62
2024/03/06 03:29:33;;;;;;;1.92;1.17;;;20.70;54.50;;;;;;5085215;28;20422;-62
2024/03/06 03:31:58;;;;;;;2.13;1.20;;;20.70;54.50;;;;;;5080769;28;20025;-62
2024/03/06 03:34:24;;;;;;;2.30;1.30;;;20.70;54.60;;;;;;5078676;28;20381;-62
2024/03/06 03:36:50;;;;;;;2.00;1.10;;;20.70;54.50;;;;;;5080312;28;20143;-62
2024/03/06 03:39:16;;;;;;;1.55;1.00;;;20.70;54.50;;;;;;5082121;28;20047;-62
2024/03/06 03:41:45;;;;;;;1.52;1.10;;;20.70;54.50;;;;;;5079256;28;20028;-62
2024/03/06 03:44:15;;;;;;;1.77;1.17;;;20.70;55.10;;;;;;5080199;28;20086;-62
2024/03/06 03:46:41;;;;;;;1.70;1.00;;;20.70;54.50;;;;;;5079464;28;20028;-62
2024/03/06 03:49:08;;;;;;;1.70;1.17;;;20.70;54.50;;;;;;5080366;28;20480;-62
2024/03/06 03:51:34;;;;;;;2.55;1.10;;;20.70;54.60;;;;;;5062622;28;20636;-62
2024/03/06 03:54:00;;;;;;;1.90;1.13;;;20.70;54.60;;;;;;5080466;28;20289;-62
2024/03/06 03:56:26;;;;;;;1.85;1.13;;;20.70;54.60;;;;;;5077864;28;20021;-62
2024/03/06 03:58:51;;;;;;;1.40;1.00;;;20.60;54.50;;;;;;5078786;28;20032;-62
2024/03/06 04:01:17;;;;;;;2.15;1.17;;;20.70;54.60;;;;;;5060108;28;20484;-62
2024/03/06 04:03:44;;;;;;;1.40;1.05;;;20.70;54.60;;;;;;5078659;28;20024;-62
2024/03/06 04:06:10;;;;;;;2.15;1.05;;;20.60;54.50;;;;;;5078279;28;20024;-61
2024/03/06 04:08:37;;;;;;;1.50;1.00;;;20.60;54.50;;;;;;5081323;28;20592;-61
2024/03/06 04:11:03;;;;;;;1.42;1.00;;;20.60;54.50;;;;;;5080932;28;20032;-60
2024/03/06 04:13:29;;;;;;;1.42;1.00;;;20.60;54.60;;;;;;5077252;28;20025;-61
2024/03/06 04:15:55;;;;;;;1.70;0.95;;;20.60;54.60;;;;;;5074992;28;20031;-61
2024/03/06 04:18:21;;;;;;;1.50;1.13;;;20.60;54.60;;;;;;5081069;28;20032;-61
2024/03/06 04:20:46;;;;;;;1.98;1.20;;;20.60;54.60;;;;;;5082710;28;20432;-61
2024/03/06 04:23:12;;;;;;;1.65;1.10;;;20.60;54.60;;;;;;5077137;28;20044;-61
2024/03/06 04:25:39;;;;;;;1.85;1.10;;;20.60;54.60;;;;;;5079366;28;20032;-61
2024/03/06 04:28:07;;;;;;;1.38;0.93;;;20.60;54.60;;;;;;5078486;28;20035;-61
2024/03/06 04:30:33;;;;;;;1.65;1.10;;;20.60;54.60;;;;;;5078543;28;20033;-62
2024/03/06 04:32:59;;;;;;;1.83;1.13;;;20.60;54.60;;;;;;5079689;28;20025;-61
2024/03/06 04:35:25;;;;;;;1.67;1.10;;;20.60;54.60;;;;;;5079231;28;20023;-60
2024/03/06 04:37:50;;;;;;;1.45;1.00;;;20.50;54.50;;;;;;5083283;28;20061;-61
2024/03/06 04:40:17;;;;;;;1.60;1.08;;;20.60;54.60;;;;;;5081524;28;20028;-62
2024/03/06 04:42:46;;;;;;;1.33;0.90;;;20.60;54.60;;;;;;5077177;28;20085;-61
2024/03/06 04:45:15;;;;;;;1.25;1.00;;;20.60;54.60;;;;;;5081145;28;20024;-61
2024/03/06 04:47:41;;;;;;;2.08;1.20;;;20.50;54.50;;;;;;5079669;28;20070;-61
2024/03/06 04:50:11;;;;;;;2.10;1.20;;;20.50;54.60;;;;;;5077039;28;20419;-61
2024/03/06 04:52:37;;;;;;;2.10;1.20;;;20.50;54.60;;;;;;5078815;28;20438;-62
2024/03/06 04:55:03;;;;;;;1.80;1.20;;;20.50;54.60;;;;;;5079494;28;20019;-60
2024/03/06 04:57:30;;;;;;;1.73;1.13;;;20.50;54.60;;;;;;5076798;28;20464;-60
2024/03/06 04:59:58;;;;;;;1.70;1.00;;;20.50;54.60;;;;;;5078672;28;20028;-60
2024/03/06 05:02:25;;;;;;;1.10;0.90;;;20.50;54.60;;;;;;5079130;28;20512;-61
2024/03/06 05:04:50;;;;;;;1.38;1.00;;;20.50;54.50;;;;;;5062868;28;20027;-62
2024/03/06 05:07:16;;;;;;;1.75;1.00;;;20.50;54.60;;;;;;5080676;28;20029;-62
2024/03/06 05:09:42;;;;;;;1.38;0.93;;;20.50;54.60;;;;;;5076991;28;20021;-62
2024/03/06 05:12:08;;;;;;;1.52;1.00;;;20.50;54.60;;;;;;5077761;28;20492;-61
2024/03/06 05:14:33;;;;;;;2.08;1.40;;;20.50;54.60;;;;;;5077838;28;20020;-65
2024/03/06 05:16:59;;;;;;;1.23;0.93;;;20.50;54.60;;;;;;5078059;28;20785;-64
2024/03/06 05:19:31;;;;;;;1.30;0.98;;;20.50;54.60;;;;;;5078825;28;20107;-65
2024/03/06 05:21:58;;;;;;;1.48;1.00;;;20.50;54.60;;;;;;5077484;28;20388;-64
2024/03/06 05:24:24;;;;;;;1.50;1.02;;;20.50;54.60;;;;;;5081867;28;20020;-63
2024/03/06 05:26:50;;;;;;;1.40;1.00;;;20.50;54.60;;;;;;5077155;28;20036;-63
2024/03/06 05:29:16;;;;;;;1.48;1.10;;;20.50;54.60;;;;;;5060783;28;20044;-63
2024/03/06 05:31:41;;;;;;;1.40;1.10;;;20.50;54.60;;;;;;5079305;28;20028;-63
2024/03/06 05:34:07;;;;;;;1.83;1.13;;;20.50;54.60;;;;;;5083499;28;20024;-62
2024/03/06 05:36:33;;;;;;;1.60;0.98;;;20.40;54.60;;;;;;5087542;28;20476;-63
2024/03/06 05:38:59;;;;;;;1.30;0.90;;;20.40;54.60;;;;;;5085691;28;20107;-63
2024/03/06 05:41:24;;;;;;;1.65;1.25;;;20.50;54.70;;;;;;5086757;28;20495;-62
2024/03/06 05:43:50;;;;;;;1.45;0.95;;;20.50;54.70;;;;;;5084522;28;20090;-63
2024/03/06 05:46:16;;;;;;;1.23;0.93;;;20.50;54.70;;;;;;5085019;28;20024;-63
2024/03/06 05:48:42;;;;;;;1.20;0.90;;;20.40;54.60;;;;;;5086260;28;20024;-63
2024/03/06 05:51:07;;;;;;;1.50;1.00;;;20.40;55.10;;;;;;5083468;28;20067;-63
2024/03/06 05:53:38;;;;;;;1.33;0.88;;;20.40;54.60;;;;;;5084736;28;20496;-63
2024/03/06 05:56:05;;;;;;;1.35;1.00;;;20.40;54.60;;;;;;5083425;28;20480;-63
2024/03/06 05:58:31;;;;;;;1.00;0.90;;;20.40;54.60;;;;;;5084272;28;20082;-63
2024/03/06 06:00:57;;;;;;;1.58;0.90;;;20.40;54.60;;;;;;5082217;28;20489;-63
2024/03/06 06:03:22;;;;;;;1.35;1.02;;;20.40;54.70;;;;;;5086719;28;20040;-63
2024/03/06 06:05:48;;;;;;;2.00;1.10;;;20.40;54.80;;;;;;5083839;28;20028;-63
2024/03/06 06:08:13;;;;;;;2.08;1.10;;;20.40;54.90;;;;;;5086041;28;20028;-63
2024/03/06 06:10:39;;;;;;;2.28;1.20;;;20.40;54.90;;;;;;5085277;28;20039;-63
2024/03/06 06:13:05;;;;;;;1.48;1.00;;;20.40;54.90;;;;;;5084536;28;20502;-63
2024/03/06 06:15:30;;;;;;;3.30;1.20;;;20.40;55.00;;;;;;5085192;28;20044;-64
2024/03/06 06:17:56;;;;;;;1.30;0.90;;;20.40;55.00;;;;;;5085938;28;20437;-64
2024/03/06 06:20:22;;;;;;;1.52;1.10;;;20.40;55.00;;;;;;5084402;28;20036;-64
2024/03/06 06:22:47;;;;;;;1.70;1.02;;;20.40;55.00;;;;;;5084808;28;20484;-64
2024/03/06 06:25:13;;;;;;;1.90;0.98;;;20.40;54.90;;;;;;5087949;28;20111;-63
2024/03/06 06:27:39;;;;;;;2.05;1.30;;;20.40;55.00;;;;;;5082032;28;20139;-63
2024/03/06 06:30:05;;;;;;;1.63;1.08;;;20.40;55.00;;;;;;5084518;28;20103;-63
2024/03/06 06:32:31;;;;;;;2.30;1.52;;;20.40;55.00;;;;;;5085950;28;20099;-63
2024/03/06 06:34:57;;;;;;;1.55;1.00;;;20.40;55.00;;;;;;5086349;28;20111;-63
2024/03/06 06:37:23;;;;;;;1.35;0.90;;;20.40;55.00;;;;;;5086112;28;20031;-63
2024/03/06 06:39:49;;;;;;;2.15;1.00;;;20.40;55.00;;;;;;5082491;28;20416;-63
2024/03/06 06:42:14;;;;;;;1.80;1.10;;;20.40;55.00;;;;;;5082155;28;20067;-63
2024/03/06 06:44:41;;;;;;;2.90;0.90;;;20.40;55.00;;;;;;5084689;28;20028;-61
2024/03/06 06:47:07;;;;;;;1.75;1.27;;;20.30;54.90;;;;;;5078295;28;20082;-60
2024/03/06 06:49:33;;;;;;;2.88;1.30;;;20.30;54.90;;;;;;5081608;28;20032;-61
2024/03/06 06:51:59;;;;;;;2.45;0.93;;;20.40;55.00;;;;;;5082636;28;20439;-60
2024/03/06 06:54:25;;;;;;;2.42;0.88;;;20.40;55.00;;;;;;5083032;28;20021;-61
2024/03/06 06:56:50;;;;;;;1.83;0.98;;;20.30;54.90;;;;;;5079328;28;20082;-60
2024/03/06 06:59:16;;;;;;;2.22;1.10;;;20.40;55.00;;;;;;5077082;28;20020;-61
2024/03/06 07:01:43;;;;;;;1.75;1.00;;;20.30;54.90;;;;;;5081440;28;20422;-60
2024/03/06 07:04:08;;;;;;;2.17;1.08;;;20.40;55.00;;;;;;5081661;28;20388;-61
2024/03/06 07:06:34;;;;;;;1.67;1.00;;;20.30;55.00;;;;;;5079917;28;20024;-60
2024/03/06 07:08:59;;;;;;;1.67;1.15;;;20.30;55.00;;;;;;5082149;28;20090;-61
2024/03/06 07:11:25;;;;;;;1.52;0.90;;;20.30;55.00;;;;;;5084486;28;20034;-61
2024/03/06 07:13:51;;;;;;;2.22;1.20;;;20.30;55.00;;;;;;5080153;28;20384;-61
2024/03/06 07:16:17;;;;;;;2.45;1.10;;;20.30;55.00;;;;;;5081629;28;20100;-61
2024/03/06 07:18:42;;;;;;;3.10;1.20;;;20.30;55.00;;;;;;5077240;28;20115;-61
2024/03/06 07:21:08;;;;;;;2.42;1.10;;;20.30;54.90;;;;;;5078570;28;20028;-62
2024/03/06 07:23:34;;;;;;;2.92;1.00;;;20.30;55.00;;;;;;5083972;28;20538;-63
2024/03/06 07:26:00;;;;;;;1.45;0.80;;;20.30;55.00;;;;;;5080864;28;20277;-63
2024/03/06 07:28:25;;;;;;;1.50;1.00;;;20.30;55.00;;;;;;5079272;28;20555;-63
2024/03/06 07:30:52;;;;;;;2.53;1.10;;;20.30;55.00;;;;;;5081500;28;20024;-63
2024/03/06 07:33:18;;;;;;;2.05;1.10;;;20.30;55.00;;;;;;5080175;28;20027;-63
2024/03/06 07:35:43;;;;;;;1.75;1.10;;;20.30;55.00;;;;;;5082065;28;20066;-63
2024/03/06 07:38:09;;;;;;;1.70;1.00;;;20.30;55.00;;;;;;5079069;28;20044;-63
2024/03/06 07:40:35;;;;;;;2.17;1.10;;;20.30;55.00;;;;;;5081039;28;20062;-63
2024/03/06 07:43:01;;;;;;;2.10;1.10;;;20.30;55.00;;;;;;5079289;28;20056;-64
2024/03/06 07:45:27;;;;;;;2.13;1.05;;;20.30;55.00;;;;;;5079603;28;20106;-63
2024/03/06 07:47:53;;;;;;;2.30;1.17;;;20.30;55.50;;;;;;5080409;28;20016;-63
2024/03/06 07:50:19;;;;;;;2.00;1.10;;;20.30;55.00;;;;;;5079635;28;20032;-63
2024/03/06 07:52:46;;;;;;;2.50;1.20;;;20.30;55.00;;;;;;5079230;28;20385;-63
2024/03/06 07:55:12;;;;;;;1.58;1.15;;;20.30;55.00;;;;;;5080713;28;20515;-63
2024/03/06 07:57:38;;;;;;;2.05;1.00;;;20.30;55.00;;;;;;5079348;28;20028;-63
2024/03/06 08:00:14;;;;;;;2.63;1.25;;;20.30;55.00;;;;;;5076020;28;20025;-63
2024/03/06 08:02:49;;;;;;;2.00;1.00;;;20.30;55.00;;;;;;5064917;28;20021;-63
2024/03/06 08:05:16;;;;;;;2.40;1.27;;;20.30;55.00;;;;;;5081073;28;20131;-63
2024/03/06 08:07:42;;;;;;;3.10;1.38;;;20.30;55.00;;;;;;5079626;28;20099;-63
2024/03/06 08:10:09;;;;;;;2.00;1.40;;;20.30;54.90;;;;;;5078602;28;20028;-63
2024/03/06 08:12:35;;;;;;;2.08;1.15;;;20.30;55.00;;;;;;5080622;28;20032;-64
2024/03/06 08:15:02;;;;;;;2.00;1.10;;;20.30;54.90;;;;;;5077424;28;20510;-64
2024/03/06 08:17:28;;;;;;;2.00;1.10;;;20.30;55.00;;;;;;5080135;28;20026;-64
2024/03/06 08:19:55;;;;;;;2.17;1.00;;;20.30;54.90;;;;;;5080217;28;20032;-63
2024/03/06 08:22:20;;;;;;;2.05;1.10;;;20.20;55.00;;;;;;5079770;28;20545;-63
2024/03/06 08:24:46;;;;;;;2.60;1.15;;;20.30;55.00;;;;;;5078444;28;20025;-63
2024/03/06 08:27:11;;;;;;;2.42;1.10;;;20.30;55.00;;;;;;5080857;28;20488;-63
2024/03/06 08:29:37;;;;;;;2.72;1.20;;;20.30;55.00;;;;;;5077551;28;20027;-63
2024/03/06 08:32:03;;;;;;;2.20;1.27;;;20.30;55.00;;;;;;5078433;28;20024;-63
2024/03/06 08:34:29;;;;;;;2.17;1.20;;;20.30;55.00;;;;;;5081050;28;20020;-63
2024/03/06 08:36:55;;;;;;;1.98;1.10;;;20.30;55.50;;;;;;5080172;28;20027;-63
2024/03/06 08:39:20;;;;;;;2.03;1.20;;;20.30;55.00;;;;;;5079159;28;20024;-63
2024/03/06 08:41:46;;;;;;;1.77;1.10;;;20.20;55.00;;;;;;5080506;28;20040;-63
2024/03/06 08:44:11;;;;;;;2.38;1.20;;;20.30;55.00;;;;;;5076313;28;20463;-64
2024/03/06 08:46:37;;;;;;;1.77;1.02;;;20.30;55.00;;;;;;5078646;28;20032;-63
2024/03/06 08:49:03;;;;;;;1.85;1.30;;;20.20;54.90;;;;;;5079815;28;20031;-63
2024/03/06 08:51:28;;;;;;;2.63;1.17;;;20.30;55.00;;;;;;5077970;28;20440;-63
2024/03/06 08:53:54;;;;;;;2.30;1.13;;;20.20;54.90;;;;;;5080849;28;20035;-63
2024/03/06 08:56:19;;;;;;;2.42;1.42;;;20.30;55.00;;;;;;5079711;28;20538;-64
2024/03/06 08:58:45;;;;;;;2.40;1.20;;;20.20;54.90;;;;;;5077989;28;20057;-63
2024/03/06 09:01:11;;;;;;;2.75;1.10;;;20.20;54.90;;;;;;5077911;28;20522;-63
2024/03/06 09:03:36;;;;;;;2.17;1.20;;;20.20;54.90;;;;;;5080595;28;20035;-60
2024/03/06 09:06:02;;;;;;;2.38;1.20;;;20.20;54.90;;;;;;5078001;28;20455;-60
2024/03/06 09:08:29;;;;;;;2.25;1.20;;;20.20;55.10;;;;;;5078555;28;20032;-60
2024/03/06 09:10:58;;;;;;;2.05;1.15;;;20.20;54.90;;;;;;5078801;28;20117;-62
2024/03/06 09:13:25;;;;;;;2.42;1.13;;;20.20;54.90;;;;;;5079658;28;20059;-61
2024/03/06 09:15:50;;;;;;;1.92;1.00;;;20.20;54.90;;;;;;5080045;28;20041;-60
2024/03/06 09:18:16;;;;;;;2.05;1.15;;;20.20;54.90;;;;;;5078964;28;20032;-60
2024/03/06 09:20:43;;;;;;;2.90;1.42;;;20.20;54.90;;;;;;5078486;28;20028;-61
2024/03/06 09:23:08;;;;;;;1.92;1.23;;;20.20;55.40;;;;;;5076888;28;20039;-61
2024/03/06 09:25:34;;;;;;;1.77;1.20;;;20.20;55.00;;;;;;5076940;28;20396;-61
2024/03/06 09:28:04;;;;;;;3.03;1.05;;;20.20;54.90;;;;;;5077940;28;20254;-61
2024/03/06 09:30:30;;;;;;;2.10;1.20;;;20.20;55.00;;;;;;5077541;28;20499;-60
2024/03/06 09:32:55;;;;;;;2.55;1.20;;;20.20;54.90;;;;;;5075446;28;20021;-60
2024/03/06 09:35:21;;;;;;;2.85;1.20;;;20.20;54.90;;;;;;5079357;28;20515;-60
2024/03/06 09:37:47;;;;;;;2.03;1.10;;;20.20;54.90;;;;;;5077064;28;20102;-60
2024/03/06 09:40:22;;;;;;;1.75;1.10;;;20.20;54.90;;;;;;5078000;28;20376;-61
2024/03/06 09:42:49;;;;;;;1.95;1.20;;;20.20;55.40;;;;;;5077268;28;20439;-61
2024/03/06 09:45:15;;;;;;;2.30;1.27;;;20.20;54.90;;;;;;5077450;28;20078;-64
2024/03/06 09:47:42;;;;;;;2.70;1.35;;;20.20;54.90;;;;;;5077225;28;20032;-64
2024/03/06 09:50:09;;;;;;;2.00;1.17;;;20.20;54.90;;;;;;5079006;28;20487;-64
2024/03/06 09:52:36;;;;;;;1.70;1.10;;;20.20;54.90;;;;;;5078521;28;20484;-64
2024/03/06 09:55:03;;;;;;;3.60;1.20;;;20.20;54.90;;;;;;5078682;28;20395;-64
2024/03/06 09:57:29;;;;;;;2.08;1.30;;;20.20;54.90;;;;;;5077294;28;20024;-64
2024/03/06 09:59:55;;;;;;;3.50;1.50;;;20.20;54.90;;;;;;5075822;28;20042;-63
2024/03/06 10:02:38;;;;;;;2.35;1.20;;;20.20;54.90;;;;;;5078367;28;20504;-63
2024/03/06 10:05:05;;;;;;;2.70;1.23;;;20.20;54.90;;;;;;5078050;28;20032;-61
2024/03/06 10:07:31;;;;;;;2.30;1.30;;;20.20;54.90;;;;;;5079132;28;20485;-61
2024/03/06 10:09:56;;;;;;;2.00;1.13;;;20.20;55.00;;;;;;5076563;28;20086;-61
2024/03/06 10:12:22;;;;;;;4.72;1.38;;;20.20;54.90;;;;;;5077990;28;20036;-60
2024/03/06 10:14:51;;;;;;;1.73;1.00;;;20.20;54.90;;;;;;5075060;28;20035;-63
2024/03/06 10:17:26;;;;;;;1.80;1.10;;;20.20;54.90;;;;;;5057989;28;20037;-63
2024/03/06 10:19:52;;;;;;;2.30;1.10;;;20.20;54.90;;;;;;5062513;28;20064;-63
2024/03/06 10:22:24;;;;;;;2.08;1.00;;;20.20;54.90;;;;;;5080552;28;20028;-63
2024/03/06 10:24:49;;;;;;;2.30;1.30;;;20.20;54.90;;;;;;5082566;28;20032;-63
2024/03/06 10:27:18;;;;;;;2.08;1.23;;;20.20;54.90;;;;;;5080032;28;20551;-63
2024/03/06 10:29:44;;;;;;;2.20;1.33;;;20.20;54.90;;;;;;5079529;28;20036;-64
2024/03/06 10:32:11;;;;;;;3.03;1.30;;;20.20;54.90;;;;;;5081449;28;20043;-64
2024/03/06 10:34:38;;;;;;;2.20;1.33;;;20.20;54.90;;;;;;5079954;28;20017;-64
2024/03/06 10:37:04;;;;;;;3.22;1.20;;;20.20;54.90;;;;;;5082881;28;20365;-63
2024/03/06 10:39:44;;;;;;;2.50;1.50;;;20.20;54.90;;;;;;5081949;28;20029;-63
2024/03/06 10:42:13;;;;;;;2.70;1.23;;;20.20;54.90;;;;;;5080424;28;20949;-63
2024/03/06 10:44:51;;;;;;;2.95;1.30;;;20.20;54.90;;;;;;5078505;28;20036;-63
2024/03/06 10:47:18;;;;;;;2.20;1.20;;;20.20;54.90;;;;;;5081207;28;20757;-63
2024/03/06 10:49:45;;;;;;;2.22;1.20;;;20.20;54.90;;;;;;5081760;28;20108;-63
2024/03/06 10:52:11;;;;;;;2.42;1.23;;;20.20;54.90;;;;;;5099344;28;20131;-63
2024/03/06 10:54:41;;;;;;;2.20;1.20;;;20.20;54.90;;;;;;5079777;28;20036;-63
2024/03/06 10:57:10;;;;;;;2.17;1.20;;;20.20;54.90;;;;;;5081565;28;20032;-63
2024/03/06 10:59:35;;;;;;;1.98;1.15;;;20.20;54.90;;;;;;5080040;28;20484;-63
2024/03/06 11:02:01;;;;;;;2.35;1.10;;;20.20;54.90;;;;;;5081505;28;20039;-63
2024/03/06 11:04:34;;;;;;;2.35;1.30;;;20.20;54.90;;;;;;5080524;28;20052;-64
2024/03/06 11:07:02;;;;;;;2.17;1.30;;;20.20;54.90;;;;;;5082160;28;20333;-63
2024/03/06 11:09:28;;;;;;;2.40;1.30;;;20.20;54.90;;;;;;5080955;28;20026;-63
2024/03/06 11:11:57;;;;;;;2.05;1.10;;;20.20;54.90;;;;;;5080491;28;20377;-63
2024/03/06 11:14:24;;;;;;;2.97;1.50;;;20.10;54.80;;;;;;5077686;28;20032;-63
2024/03/06 11:17:16;;;;;;;2.13;1.10;;;20.10;54.80;;;;;;5079452;28;20036;-63
2024/03/06 11:20:00;;;;;;;2.65;1.38;;;20.10;54.90;;;;;;5076987;28;20044;-63
2024/03/06 11:22:57;;;;;;;2.45;1.20;;;20.10;54.80;;;;;;5080961;28;20052;-63
2024/03/06 11:25:51;;;;;;;2.33;1.33;;;20.10;54.90;;;;;;5080244;28;20143;-63
2024/03/06 11:28:21;;;;;;;2.30;1.30;;;20.20;54.90;;;;;;5081836;28;20028;-63
2024/03/06 11:31:06;;;;;;;2.22;1.10;;;20.10;54.90;;;;;;5060669;28;20064;-65
2024/03/06 11:33:37;;;;;;;2.22;1.10;;;20.20;54.90;;;;;;5079079;28;20494;-64
2024/03/06 11:36:18;;;;;;;1.90;1.17;;;20.10;54.80;;;;;;5079954;28;20031;-63
2024/03/06 11:39:06;;;;;;;2.33;1.30;;;20.20;54.90;;;;;;5081255;28;20016;-63
2024/03/06 11:41:50;;;;;;;2.58;1.42;;;20.20;54.90;;;;;;5079241;28;20468;-64
2024/03/06 11:44:23;;;;;;;2.60;1.27;;;20.10;54.90;;;;;;5081520;28;20468;-63
2024/03/06 11:47:03;;;;;;;2.17;1.35;;;20.10;54.80;;;;;;5080358;28;20377;-64
2024/03/06 11:49:31;;;;;;;2.45;1.20;;;20.10;54.90;;;;;;5075662;28;20027;-64
2024/03/06 11:52:02;;;;;;;2.28;1.40;;;20.10;54.80;;;;;;5082906;28;20464;-64
2024/03/06 11:54:29;;;;;;;2.22;1.33;;;20.10;54.80;;;;;;5077682;28;20417;-63
2024/03/06 11:56:59;;;;;;;2.10;1.20;;;20.10;54.90;;;;;;5079965;28;20115;-63
2024/03/06 11:59:26;;;;;;;2.10;1.17;;;20.10;54.80;;;;;;5079282;28;20499;-63
2024/03/06 12:01:53;;;;;;;2.92;1.20;;;20.20;54.90;;;;;;5076170;28;20031;-63
2024/03/06 12:04:20;;;;;;;2.28;1.38;;;20.10;54.80;;;;;;5079142;28;20131;-63
2024/03/06 12:06:46;;;;;;;1.92;1.33;;;20.10;54.80;;;;;;5078238;28;20520;-65
2024/03/06 12:09:11;;;;;;;2.25;1.50;;;20.10;54.80;;;;;;5079768;28;20169;-65
2024/03/06 12:11:37;;;;;;;2.20;1.30;;;20.10;54.80;;;;;;5080786;28;20032;-65
2024/03/06 12:14:03;;;;;;;2.15;1.25;;;20.10;54.80;;;;;;5080614;28;20441;-66
2024/03/06 12:16:29;;;;;;;2.35;1.40;;;20.10;54.90;;;;;;5078265;28;20024;-63
2024/03/06 12:18:58;;;;;;;2.05;1.27;;;20.10;54.90;;;;;;5079098;28;20032;-63
2024/03/06 12:21:34;;;;;;;1.83;1.27;;;20.10;54.80;;;;;;5080935;28;20485;-63
2024/03/06 12:24:07;;;;;;;2.55;1.42;;;20.10;54.90;;;;;;5078110;28;20067;-63
2024/03/06 12:26:33;;;;;;;2.00;1.15;;;20.10;54.80;;;;;;5078727;28;20443;-63
2024/03/06 12:29:10;;;;;;;1.65;1.15;;;20.10;54.80;;;;;;5079329;28;20170;-63
2024/03/06 12:31:37;;;;;;;2.20;1.25;;;20.10;54.80;;;;;;5078189;28;20357;-63
2024/03/06 12:34:04;;;;;;;2.22;1.20;;;20.10;54.80;;;;;;5079075;28;20070;-63
2024/03/06 12:36:31;;;;;;;2.17;1.50;;;20.10;54.80;;;;;;5081522;28;20024;-63
2024/03/06 12:39:01;;;;;;;2.00;1.40;;;20.10;54.80;;;;;;5079757;28;20020;-63
2024/03/06 12:41:27;;;;;;;2.47;1.48;;;20.10;54.80;;;;;;5081046;28;20067;-63
2024/03/06 12:43:54;;;;;;;2.28;1.30;;;20.10;54.80;;;;;;5079260;28;20047;-63
2024/03/06 12:46:20;;;;;;;2.10;1.30;;;20.10;54.80;;;;;;5077430;28;20073;-63
2024/03/06 12:48:46;;;;;;;1.70;1.10;;;20.10;54.80;;;;;;5078105;28;20059;-63